Time;durP1;ratioP1;P1;durP2;ratioP2;P2;SDS_P1;SDS_P2;PMS_P1;PMS_P2;Temp;Humidity;BMP_temperature;BMP_pressure;BME280_temperature;BME280_humidity;BME280_pressure;Samples;Min_cycle;Max_cycle;Signal;HPM_P1;HPM_P2
2021/03/13 00:00:55;;;;;;;1.85;1.15;;;;;;;6.16;52.44141;94607.42;;;;
2021/03/13 00:01:56;;;;;;;1.85;1.15;;;;;;;6.16;52.44141;94607.42;;;;
2021/03/13 00:02:58;;;;;;;1.85;1.15;;;;;;;6.16;52.44141;94607.42;;;;
2021/03/13 00:03:58;;;;;;;1.85;1.15;;;;;;;6.16;52.44141;94607.42;;;;
2021/03/13 00:04:59;;;;;;;1.85;1.15;;;;;;;6.16;52.44141;94607.42;;;;
2021/03/13 00:05:59;;;;;;;1.85;1.15;;;;;;;6.16;52.44141;94607.42;;;;
2021/03/13 00:07:00;;;;;;;1.85;1.15;;;;;;;6.16;52.44141;94607.42;;;;
2021/03/13 00:08:01;;;;;;;1.85;1.15;;;;;;;6.16;52.44141;94607.42;;;;
2021/03/13 00:09:02;;;;;;;2.45;1.2;;;;;;;6.18;52.27441;94593.17;;;;
2021/03/13 00:10:03;;;;;;;2.45;1.2;;;;;;;6.18;52.27441;94593.17;;;;
2021/03/13 00:11:04;;;;;;;2.45;1.2;;;;;;;6.18;52.27441;94593.17;;;;
2021/03/13 00:12:06;;;;;;;2.45;1.2;;;;;;;6.18;52.27441;94593.17;;;;
2021/03/13 00:13:08;;;;;;;2.45;1.2;;;;;;;6.18;52.27441;94593.17;;;;
2021/03/13 00:14:09;;;;;;;2.45;1.2;;;;;;;6.18;52.27441;94593.17;;;;
2021/03/13 00:15:13;;;;;;;2.45;1.2;;;;;;;6.18;52.27441;94593.17;;;;
2021/03/13 00:16:15;;;;;;;2.45;1.2;;;;;;;6.18;52.27441;94593.17;;;;
2021/03/13 00:17:15;;;;;;;2.45;1.2;;;;;;;6.18;52.27441;94593.17;;;;
2021/03/13 00:18:16;;;;;;;2.45;1.2;;;;;;;6.18;52.27441;94593.17;;;;
2021/03/13 00:19:17;;;;;;;2.95;1.1;;;;;;;6.19;52.24219;94601.62;;;;
2021/03/13 00:20:17;;;;;;;2.95;1.1;;;;;;;6.19;52.24219;94601.62;;;;
2021/03/13 00:21:20;;;;;;;2.95;1.1;;;;;;;6.19;52.24219;94601.62;;;;
2021/03/13 00:22:21;;;;;;;2.95;1.1;;;;;;;6.19;52.24219;94601.62;;;;
2021/03/13 00:23:21;;;;;;;2.95;1.1;;;;;;;6.19;52.24219;94601.62;;;;
2021/03/13 00:24:22;;;;;;;2.95;1.1;;;;;;;6.19;52.24219;94601.62;;;;
2021/03/13 00:25:22;;;;;;;2.95;1.1;;;;;;;6.19;52.24219;94601.62;;;;
2021/03/13 00:26:25;;;;;;;2.95;1.1;;;;;;;6.19;52.24219;94601.62;;;;
2021/03/13 00:27:25;;;;;;;2.95;1.1;;;;;;;6.19;52.24219;94601.62;;;;
2021/03/13 00:28:26;;;;;;;2.95;1.1;;;;;;;6.19;52.24219;94601.62;;;;
2021/03/13 00:29:26;;;;;;;2.95;1.1;;;;;;;6.19;52.24219;94601.62;;;;
2021/03/13 00:30:27;;;;;;;1.9;1.25;;;;;;;6.36;51.9873;94615.52;;;;
2021/03/13 00:31:29;;;;;;;1.9;1.25;;;;;;;6.36;51.9873;94615.52;;;;
2021/03/13 00:32:30;;;;;;;1.9;1.25;;;;;;;6.36;51.9873;94615.52;;;;
2021/03/13 00:33:35;;;;;;;1.9;1.25;;;;;;;6.36;51.9873;94615.52;;;;
2021/03/13 00:34:35;;;;;;;1.9;1.25;;;;;;;6.36;51.9873;94615.52;;;;
2021/03/13 00:35:36;;;;;;;1.9;1.25;;;;;;;6.36;51.9873;94615.52;;;;
2021/03/13 00:36:38;;;;;;;1.9;1.25;;;;;;;6.36;51.9873;94615.52;;;;
2021/03/13 00:37:38;;;;;;;1.9;1.25;;;;;;;6.36;51.9873;94615.52;;;;
2021/03/13 00:38:39;;;;;;;1.9;1.25;;;;;;;6.36;51.9873;94615.52;;;;
2021/03/13 00:39:40;;;;;;;1.9;1.25;;;;;;;6.36;51.9873;94615.52;;;;
2021/03/13 00:40:41;;;;;;;2.6;1.3;;;;;;;6.61;51.71875;94617.54;;;;
2021/03/13 00:41:43;;;;;;;2.6;1.3;;;;;;;6.61;51.71875;94617.54;;;;
2021/03/13 00:42:44;;;;;;;2.6;1.3;;;;;;;6.61;51.71875;94617.54;;;;
2021/03/13 00:43:45;;;;;;;2.6;1.3;;;;;;;6.61;51.71875;94617.54;;;;
2021/03/13 00:44:45;;;;;;;2.6;1.3;;;;;;;6.61;51.71875;94617.54;;;;
2021/03/13 00:45:46;;;;;;;2.6;1.3;;;;;;;6.61;51.71875;94617.54;;;;
2021/03/13 00:46:47;;;;;;;2.6;1.3;;;;;;;6.61;51.71875;94617.54;;;;
2021/03/13 00:47:48;;;;;;;2.6;1.3;;;;;;;6.61;51.71875;94617.54;;;;
2021/03/13 00:48:50;;;;;;;2.6;1.3;;;;;;;6.61;51.71875;94617.54;;;;
2021/03/13 00:49:50;;;;;;;2.6;1.3;;;;;;;6.61;51.71875;94617.54;;;;
2021/03/13 00:50:51;;;;;;;2.6;1.3;;;;;;;6.61;51.71875;94617.54;;;;
2021/03/13 00:51:52;;;;;;;2.05;1.1;;;;;;;6.72;51.62402;94627.5;;;;
2021/03/13 00:52:52;;;;;;;2.05;1.1;;;;;;;6.72;51.62402;94627.5;;;;
2021/03/13 00:53:53;;;;;;;2.05;1.1;;;;;;;6.72;51.62402;94627.5;;;;
2021/03/13 00:54:53;;;;;;;2.05;1.1;;;;;;;6.72;51.62402;94627.5;;;;
2021/03/13 00:55:54;;;;;;;2.05;1.1;;;;;;;6.72;51.62402;94627.5;;;;
2021/03/13 00:56:54;;;;;;;2.05;1.1;;;;;;;6.72;51.62402;94627.5;;;;
2021/03/13 00:57:55;;;;;;;2.05;1.1;;;;;;;6.72;51.62402;94627.5;;;;
2021/03/13 00:58:56;;;;;;;2.05;1.1;;;;;;;6.72;51.62402;94627.5;;;;
2021/03/13 00:59:56;;;;;;;2.05;1.1;;;;;;;6.72;51.62402;94627.5;;;;
2021/03/13 01:00:57;;;;;;;2.05;1.1;;;;;;;6.72;51.62402;94627.5;;;;
2021/03/13 01:01:57;;;;;;;2.1;1.2;;;;;;;6.66;51.66992;94608.37;;;;
2021/03/13 01:02:58;;;;;;;2.1;1.2;;;;;;;6.66;51.66992;94608.37;;;;
2021/03/13 01:03:58;;;;;;;2.1;1.2;;;;;;;6.66;51.66992;94608.37;;;;
2021/03/13 01:04:59;;;;;;;2.1;1.2;;;;;;;6.66;51.66992;94608.37;;;;
2021/03/13 01:06:00;;;;;;;2.1;1.2;;;;;;;6.66;51.66992;94608.37;;;;
2021/03/13 01:07:00;;;;;;;2.1;1.2;;;;;;;6.66;51.66992;94608.37;;;;
2021/03/13 01:08:01;;;;;;;2.1;1.2;;;;;;;6.66;51.66992;94608.37;;;;
2021/03/13 01:09:03;;;;;;;2.1;1.2;;;;;;;6.66;51.66992;94608.37;;;;
2021/03/13 01:10:05;;;;;;;2.1;1.2;;;;;;;6.66;51.66992;94608.37;;;;
2021/03/13 01:11:12;;;;;;;2.1;1.2;;;;;;;6.66;51.66992;94608.37;;;;
2021/03/13 01:12:12;;;;;;;2.1;1.2;;;;;;;6.66;51.66992;94608.37;;;;
2021/03/13 01:13:13;;;;;;;2.1;1.1;;;;;;;6.39;52.06445;94598.13;;;;
2021/03/13 01:14:14;;;;;;;2.1;1.1;;;;;;;6.39;52.06445;94598.13;;;;
2021/03/13 01:15:15;;;;;;;2.1;1.1;;;;;;;6.39;52.06445;94598.13;;;;
2021/03/13 01:16:18;;;;;;;2.1;1.1;;;;;;;6.39;52.06445;94598.13;;;;
2021/03/13 01:17:18;;;;;;;2.1;1.1;;;;;;;6.39;52.06445;94598.13;;;;
2021/03/13 01:18:19;;;;;;;2.1;1.1;;;;;;;6.39;52.06445;94598.13;;;;
2021/03/13 01:19:19;;;;;;;2.1;1.1;;;;;;;6.39;52.06445;94598.13;;;;
2021/03/13 01:20:20;;;;;;;2.1;1.1;;;;;;;6.39;52.06445;94598.13;;;;
2021/03/13 01:21:24;;;;;;;2.1;1.1;;;;;;;6.39;52.06445;94598.13;;;;
2021/03/13 01:22:24;;;;;;;2.1;1.1;;;;;;;6.39;52.06445;94598.13;;;;
2021/03/13 01:23:25;;;;;;;2;1.2;;;;;;;6.29;52.22266;94589.31;;;;
2021/03/13 01:24:26;;;;;;;2;1.2;;;;;;;6.29;52.22266;94589.31;;;;
2021/03/13 01:25:26;;;;;;;2;1.2;;;;;;;6.29;52.22266;94589.31;;;;
2021/03/13 01:26:27;;;;;;;2;1.2;;;;;;;6.29;52.22266;94589.31;;;;
2021/03/13 01:27:27;;;;;;;2;1.2;;;;;;;6.29;52.22266;94589.31;;;;
2021/03/13 01:28:28;;;;;;;2;1.2;;;;;;;6.29;52.22266;94589.31;;;;
2021/03/13 01:29:28;;;;;;;2;1.2;;;;;;;6.29;52.22266;94589.31;;;;
2021/03/13 01:30:29;;;;;;;2;1.2;;;;;;;6.29;52.22266;94589.31;;;;
2021/03/13 01:31:30;;;;;;;2;1.2;;;;;;;6.29;52.22266;94589.31;;;;
2021/03/13 01:32:31;;;;;;;2;1.2;;;;;;;6.29;52.22266;94589.31;;;;
2021/03/13 01:33:31;;;;;;;2;1.2;;;;;;;6.29;52.22266;94589.31;;;;
2021/03/13 01:34:32;;;;;;;1.95;1.2;;;;;;;6.32;52.02344;94594.73;;;;
2021/03/13 01:35:33;;;;;;;1.95;1.2;;;;;;;6.32;52.02344;94594.73;;;;
2021/03/13 01:36:33;;;;;;;1.95;1.2;;;;;;;6.32;52.02344;94594.73;;;;
2021/03/13 01:37:34;;;;;;;1.95;1.2;;;;;;;6.32;52.02344;94594.73;;;;
2021/03/13 01:38:35;;;;;;;1.95;1.2;;;;;;;6.32;52.02344;94594.73;;;;
2021/03/13 01:39:35;;;;;;;1.95;1.2;;;;;;;6.32;52.02344;94594.73;;;;
2021/03/13 01:40:36;;;;;;;1.95;1.2;;;;;;;6.32;52.02344;94594.73;;;;
2021/03/13 01:41:36;;;;;;;1.95;1.2;;;;;;;6.32;52.02344;94594.73;;;;
2021/03/13 01:42:37;;;;;;;1.95;1.2;;;;;;;6.32;52.02344;94594.73;;;;
2021/03/13 01:43:37;;;;;;;1.95;1.2;;;;;;;6.32;52.02344;94594.73;;;;
2021/03/13 01:44:38;;;;;;;1.9;1;;;;;;;6.3;51.97852;94588.67;;;;
2021/03/13 01:45:39;;;;;;;1.9;1;;;;;;;6.3;51.97852;94588.67;;;;
2021/03/13 01:46:39;;;;;;;1.9;1;;;;;;;6.3;51.97852;94588.67;;;;
2021/03/13 01:47:40;;;;;;;1.9;1;;;;;;;6.3;51.97852;94588.67;;;;
2021/03/13 01:48:42;;;;;;;1.9;1;;;;;;;6.3;51.97852;94588.67;;;;
2021/03/13 01:49:47;;;;;;;1.9;1;;;;;;;6.3;51.97852;94588.67;;;;
2021/03/13 01:50:50;;;;;;;1.9;1;;;;;;;6.3;51.97852;94588.67;;;;
2021/03/13 01:51:50;;;;;;;1.9;1;;;;;;;6.3;51.97852;94588.67;;;;
2021/03/13 01:52:51;;;;;;;1.9;1;;;;;;;6.3;51.97852;94588.67;;;;
2021/03/13 01:53:51;;;;;;;1.9;1;;;;;;;6.3;51.97852;94588.67;;;;
2021/03/13 01:54:52;;;;;;;1.9;1;;;;;;;6.3;51.97852;94588.67;;;;
2021/03/13 01:55:53;;;;;;;2.25;1.05;;;;;;;6.34;51.9209;94580.49;;;;
2021/03/13 01:56:54;;;;;;;2.25;1.05;;;;;;;6.34;51.9209;94580.49;;;;
2021/03/13 01:57:55;;;;;;;2.25;1.05;;;;;;;6.34;51.9209;94580.49;;;;
2021/03/13 01:58:56;;;;;;;2.25;1.05;;;;;;;6.34;51.9209;94580.49;;;;
2021/03/13 01:59:57;;;;;;;2.25;1.05;;;;;;;6.34;51.9209;94580.49;;;;
2021/03/13 02:00:57;;;;;;;2.25;1.05;;;;;;;6.34;51.9209;94580.49;;;;
2021/03/13 02:01:58;;;;;;;2.25;1.05;;;;;;;6.34;51.9209;94580.49;;;;
2021/03/13 02:02:59;;;;;;;2.25;1.05;;;;;;;6.34;51.9209;94580.49;;;;
2021/03/13 02:03:59;;;;;;;2.25;1.05;;;;;;;6.34;51.9209;94580.49;;;;
2021/03/13 02:05:01;;;;;;;2.25;1.05;;;;;;;6.34;51.9209;94580.49;;;;
2021/03/13 02:06:08;;;;;;;1.1;0.9;;;;;;;6.33;52.01465;94575.73;;;;
2021/03/13 02:07:09;;;;;;;1.1;0.9;;;;;;;6.33;52.01465;94575.73;;;;
2021/03/13 02:08:17;;;;;;;1.1;0.9;;;;;;;6.33;52.01465;94575.73;;;;
2021/03/13 02:09:27;;;;;;;1.1;0.9;;;;;;;6.33;52.01465;94575.73;;;;
2021/03/13 02:10:34;;;;;;;1.1;0.9;;;;;;;6.33;52.01465;94575.73;;;;
2021/03/13 02:11:42;;;;;;;1.1;0.9;;;;;;;6.33;52.01465;94575.73;;;;
2021/03/13 02:12:49;;;;;;;1.1;0.9;;;;;;;6.33;52.01465;94575.73;;;;
2021/03/13 02:13:59;;;;;;;1.1;0.9;;;;;;;6.33;52.01465;94575.73;;;;
2021/03/13 02:15:15;;;;;;;1.1;0.9;;;;;;;6.33;52.01465;94575.73;;;;
2021/03/13 02:16:24;;;;;;;1.9;1;;;;;;;6.36;52.19922;94562.82;;;;
2021/03/13 02:17:32;;;;;;;1.9;1;;;;;;;6.36;52.19922;94562.82;;;;
2021/03/13 02:18:40;;;;;;;1.9;1;;;;;;;6.36;52.19922;94562.82;;;;
2021/03/13 02:19:48;;;;;;;1.9;1;;;;;;;6.36;52.19922;94562.82;;;;
2021/03/13 02:22:04;;;;;;;1.9;1;;;;;;;6.36;52.19922;94562.82;;;;
2021/03/13 02:23:06;;;;;;;1.9;1;;;;;;;6.36;52.19922;94562.82;;;;
2021/03/13 02:24:09;;;;;;;1.9;1;;;;;;;6.36;52.19922;94562.82;;;;
2021/03/13 02:25:19;;;;;;;1.9;1;;;;;;;6.36;52.19922;94562.82;;;;
2021/03/13 02:26:30;;;;;;;1.9;1;;;;;;;6.36;52.19922;94562.82;;;;
2021/03/13 02:27:43;;;;;;;2.2;1.1;;;;;;;6.69;52.38867;94554.3;;;;
2021/03/13 02:28:52;;;;;;;2.2;1.1;;;;;;;6.69;52.38867;94554.3;;;;
2021/03/13 02:30:06;;;;;;;2.2;1.1;;;;;;;6.69;52.38867;94554.3;;;;
2021/03/13 02:31:11;;;;;;;2.2;1.1;;;;;;;6.69;52.38867;94554.3;;;;
2021/03/13 02:32:13;;;;;;;2.2;1.1;;;;;;;6.69;52.38867;94554.3;;;;
2021/03/13 02:33:22;;;;;;;2.2;1.1;;;;;;;6.69;52.38867;94554.3;;;;
2021/03/13 02:34:28;;;;;;;2.2;1.1;;;;;;;6.69;52.38867;94554.3;;;;
2021/03/13 02:35:32;;;;;;;2.2;1.1;;;;;;;6.69;52.38867;94554.3;;;;
2021/03/13 02:36:36;;;;;;;2.2;1.1;;;;;;;6.69;52.38867;94554.3;;;;
2021/03/13 02:37:38;;;;;;;2.4;1.15;;;;;;;6.84;52.67383;94552.39;;;;
2021/03/13 02:38:41;;;;;;;2.4;1.15;;;;;;;6.84;52.67383;94552.39;;;;
2021/03/13 02:39:46;;;;;;;2.4;1.15;;;;;;;6.84;52.67383;94552.39;;;;
2021/03/13 02:40:49;;;;;;;2.4;1.15;;;;;;;6.84;52.67383;94552.39;;;;
2021/03/13 02:41:52;;;;;;;2.4;1.15;;;;;;;6.84;52.67383;94552.39;;;;
2021/03/13 02:43:00;;;;;;;2.4;1.15;;;;;;;6.84;52.67383;94552.39;;;;
2021/03/13 02:44:04;;;;;;;2.4;1.15;;;;;;;6.84;52.67383;94552.39;;;;
2021/03/13 02:45:07;;;;;;;2.4;1.15;;;;;;;6.84;52.67383;94552.39;;;;
2021/03/13 02:46:10;;;;;;;2.4;1.15;;;;;;;6.84;52.67383;94552.39;;;;
2021/03/13 02:47:14;;;;;;;2.4;1.15;;;;;;;6.84;52.67383;94552.39;;;;
2021/03/13 02:48:15;;;;;;;2.4;1.15;;;;;;;6.84;52.67383;94552.39;;;;
2021/03/13 02:49:18;;;;;;;2.8;1.2;;;;;;;6.71;53.16992;94544.95;;;;
2021/03/13 02:50:21;;;;;;;2.8;1.2;;;;;;;6.71;53.16992;94544.95;;;;
2021/03/13 02:51:23;;;;;;;2.8;1.2;;;;;;;6.71;53.16992;94544.95;;;;
2021/03/13 02:52:26;;;;;;;2.8;1.2;;;;;;;6.71;53.16992;94544.95;;;;
2021/03/13 02:53:27;;;;;;;2.8;1.2;;;;;;;6.71;53.16992;94544.95;;;;
2021/03/13 02:54:30;;;;;;;2.8;1.2;;;;;;;6.71;53.16992;94544.95;;;;
2021/03/13 02:55:33;;;;;;;2.8;1.2;;;;;;;6.71;53.16992;94544.95;;;;
2021/03/13 02:56:34;;;;;;;2.8;1.2;;;;;;;6.71;53.16992;94544.95;;;;
2021/03/13 02:57:37;;;;;;;2.8;1.2;;;;;;;6.71;53.16992;94544.95;;;;
2021/03/13 02:58:39;;;;;;;2.8;1.2;;;;;;;6.71;53.16992;94544.95;;;;
2021/03/13 02:59:41;;;;;;;2;1.2;;;;;;;6.52;53.94629;94538.97;;;;
2021/03/13 03:00:43;;;;;;;2;1.2;;;;;;;6.52;53.94629;94538.97;;;;
2021/03/13 03:01:45;;;;;;;2;1.2;;;;;;;6.52;53.94629;94538.97;;;;
2021/03/13 03:02:47;;;;;;;2;1.2;;;;;;;6.52;53.94629;94538.97;;;;
2021/03/13 03:03:52;;;;;;;2;1.2;;;;;;;6.52;53.94629;94538.97;;;;
2021/03/13 03:04:55;;;;;;;2;1.2;;;;;;;6.52;53.94629;94538.97;;;;
2021/03/13 03:05:57;;;;;;;2;1.2;;;;;;;6.52;53.94629;94538.97;;;;
2021/03/13 03:06:59;;;;;;;2;1.2;;;;;;;6.52;53.94629;94538.97;;;;
2021/03/13 03:07:59;;;;;;;2;1.2;;;;;;;6.52;53.94629;94538.97;;;;
2021/03/13 03:09:03;;;;;;;2;1.2;;;;;;;6.52;53.94629;94538.97;;;;
2021/03/13 03:10:05;;;;;;;1.3;1.1;;;;;;;6.36;54.33301;94531.06;;;;
2021/03/13 03:11:08;;;;;;;1.3;1.1;;;;;;;6.36;54.33301;94531.06;;;;
2021/03/13 03:12:09;;;;;;;1.3;1.1;;;;;;;6.36;54.33301;94531.06;;;;
2021/03/13 03:13:11;;;;;;;1.3;1.1;;;;;;;6.36;54.33301;94531.06;;;;
2021/03/13 03:14:12;;;;;;;1.3;1.1;;;;;;;6.36;54.33301;94531.06;;;;
2021/03/13 03:15:16;;;;;;;1.3;1.1;;;;;;;6.36;54.33301;94531.06;;;;
2021/03/13 03:16:21;;;;;;;1.3;1.1;;;;;;;6.36;54.33301;94531.06;;;;
2021/03/13 03:17:24;;;;;;;1.3;1.1;;;;;;;6.36;54.33301;94531.06;;;;
2021/03/13 03:18:27;;;;;;;1.3;1.1;;;;;;;6.36;54.33301;94531.06;;;;
2021/03/13 03:19:28;;;;;;;1.3;1.1;;;;;;;6.36;54.33301;94531.06;;;;
2021/03/13 03:20:30;;;;;;;1.4;1.1;;;;;;;6.2;54.80273;94527.69;;;;
2021/03/13 03:21:32;;;;;;;1.4;1.1;;;;;;;6.2;54.80273;94527.69;;;;
2021/03/13 03:22:33;;;;;;;1.4;1.1;;;;;;;6.2;54.80273;94527.69;;;;
2021/03/13 03:23:35;;;;;;;1.4;1.1;;;;;;;6.2;54.80273;94527.69;;;;
2021/03/13 03:24:37;;;;;;;1.4;1.1;;;;;;;6.2;54.80273;94527.69;;;;
2021/03/13 03:25:38;;;;;;;1.4;1.1;;;;;;;6.2;54.80273;94527.69;;;;
2021/03/13 03:26:39;;;;;;;1.4;1.1;;;;;;;6.2;54.80273;94527.69;;;;
2021/03/13 03:27:50;;;;;;;1.4;1.1;;;;;;;6.2;54.80273;94527.69;;;;
2021/03/13 03:28:50;;;;;;;1.4;1.1;;;;;;;6.2;54.80273;94527.69;;;;
2021/03/13 03:29:51;;;;;;;1.4;1.1;;;;;;;6.2;54.80273;94527.69;;;;
2021/03/13 03:30:51;;;;;;;1.4;1.1;;;;;;;6.2;54.80273;94527.69;;;;
2021/03/13 03:31:53;;;;;;;1.5;1;;;;;;;6.03;55.42969;94519.14;;;;
2021/03/13 03:32:54;;;;;;;1.5;1;;;;;;;6.03;55.42969;94519.14;;;;
2021/03/13 03:33:54;;;;;;;1.5;1;;;;;;;6.03;55.42969;94519.14;;;;
2021/03/13 03:34:56;;;;;;;1.5;1;;;;;;;6.03;55.42969;94519.14;;;;
2021/03/13 03:35:56;;;;;;;1.5;1;;;;;;;6.03;55.42969;94519.14;;;;
2021/03/13 03:36:57;;;;;;;1.5;1;;;;;;;6.03;55.42969;94519.14;;;;
2021/03/13 03:37:57;;;;;;;1.5;1;;;;;;;6.03;55.42969;94519.14;;;;
2021/03/13 03:39:00;;;;;;;1.5;1;;;;;;;6.03;55.42969;94519.14;;;;
2021/03/13 03:40:01;;;;;;;1.5;1;;;;;;;6.03;55.42969;94519.14;;;;
2021/03/13 03:41:03;;;;;;;1.5;1;;;;;;;6.03;55.42969;94519.14;;;;
2021/03/13 03:42:03;;;;;;;2;1.1;;;;;;;5.9;56.08398;94523.24;;;;
2021/03/13 03:43:04;;;;;;;2;1.1;;;;;;;5.9;56.08398;94523.24;;;;
2021/03/13 03:44:10;;;;;;;2;1.1;;;;;;;5.9;56.08398;94523.24;;;;
2021/03/13 03:45:14;;;;;;;2;1.1;;;;;;;5.9;56.08398;94523.24;;;;
2021/03/13 03:46:17;;;;;;;2;1.1;;;;;;;5.9;56.08398;94523.24;;;;
2021/03/13 03:47:18;;;;;;;2;1.1;;;;;;;5.9;56.08398;94523.24;;;;
2021/03/13 03:48:19;;;;;;;2;1.1;;;;;;;5.9;56.08398;94523.24;;;;
2021/03/13 03:49:22;;;;;;;2;1.1;;;;;;;5.9;56.08398;94523.24;;;;
2021/03/13 03:50:24;;;;;;;2;1.1;;;;;;;5.9;56.08398;94523.24;;;;
2021/03/13 03:51:25;;;;;;;2;1.1;;;;;;;5.9;56.08398;94523.24;;;;
2021/03/13 03:52:28;;;;;;;1.85;1;;;;;;;5.7;56.61133;94533.33;;;;
2021/03/13 03:53:31;;;;;;;1.85;1;;;;;;;5.7;56.61133;94533.33;;;;
2021/03/13 03:54:34;;;;;;;1.85;1;;;;;;;5.7;56.61133;94533.33;;;;
2021/03/13 03:55:37;;;;;;;1.85;1;;;;;;;5.7;56.61133;94533.33;;;;
2021/03/13 03:56:40;;;;;;;1.85;1;;;;;;;5.7;56.61133;94533.33;;;;
2021/03/13 03:57:42;;;;;;;1.85;1;;;;;;;5.7;56.61133;94533.33;;;;
2021/03/13 03:58:44;;;;;;;1.85;1;;;;;;;5.7;56.61133;94533.33;;;;
2021/03/13 03:59:47;;;;;;;1.85;1;;;;;;;5.7;56.61133;94533.33;;;;
2021/03/13 04:00:48;;;;;;;1.85;1;;;;;;;5.7;56.61133;94533.33;;;;
2021/03/13 04:01:50;;;;;;;1.85;1;;;;;;;5.7;56.61133;94533.33;;;;
2021/03/13 04:02:52;;;;;;;1.85;1;;;;;;;5.7;56.61133;94533.33;;;;
2021/03/13 04:03:56;;;;;;;2.05;1.15;;;;;;;5.5;57.43457;94542.66;;;;
2021/03/13 04:04:59;;;;;;;2.05;1.15;;;;;;;5.5;57.43457;94542.66;;;;
2021/03/13 04:06:01;;;;;;;2.05;1.15;;;;;;;5.5;57.43457;94542.66;;;;
2021/03/13 04:07:02;;;;;;;2.05;1.15;;;;;;;5.5;57.43457;94542.66;;;;
2021/03/13 04:08:03;;;;;;;2.05;1.15;;;;;;;5.5;57.43457;94542.66;;;;
2021/03/13 04:09:06;;;;;;;2.05;1.15;;;;;;;5.5;57.43457;94542.66;;;;
2021/03/13 04:10:07;;;;;;;2.05;1.15;;;;;;;5.5;57.43457;94542.66;;;;
2021/03/13 04:11:09;;;;;;;2.05;1.15;;;;;;;5.5;57.43457;94542.66;;;;
2021/03/13 04:12:11;;;;;;;2.05;1.15;;;;;;;5.5;57.43457;94542.66;;;;
2021/03/13 04:13:12;;;;;;;2.05;1.15;;;;;;;5.5;57.43457;94542.66;;;;
2021/03/13 04:14:16;;;;;;;1.8;1.05;;;;;;;5.5;57.90234;94535.03;;;;
2021/03/13 04:15:18;;;;;;;1.8;1.05;;;;;;;5.5;57.90234;94535.03;;;;
2021/03/13 04:16:19;;;;;;;1.8;1.05;;;;;;;5.5;57.90234;94535.03;;;;
2021/03/13 04:17:21;;;;;;;1.8;1.05;;;;;;;5.5;57.90234;94535.03;;;;
2021/03/13 04:18:22;;;;;;;1.8;1.05;;;;;;;5.5;57.90234;94535.03;;;;
2021/03/13 04:19:23;;;;;;;1.8;1.05;;;;;;;5.5;57.90234;94535.03;;;;
2021/03/13 04:20:26;;;;;;;1.8;1.05;;;;;;;5.5;57.90234;94535.03;;;;
2021/03/13 04:21:27;;;;;;;1.8;1.05;;;;;;;5.5;57.90234;94535.03;;;;
2021/03/13 04:22:29;;;;;;;1.8;1.05;;;;;;;5.5;57.90234;94535.03;;;;
2021/03/13 04:23:30;;;;;;;1.8;1.05;;;;;;;5.5;57.90234;94535.03;;;;
2021/03/13 04:24:34;;;;;;;1.8;1.1;;;;;;;5.54;58.48242;94527.24;;;;
2021/03/13 04:25:37;;;;;;;1.8;1.1;;;;;;;5.54;58.48242;94527.24;;;;
2021/03/13 04:26:38;;;;;;;1.8;1.1;;;;;;;5.54;58.48242;94527.24;;;;
2021/03/13 04:27:44;;;;;;;1.8;1.1;;;;;;;5.54;58.48242;94527.24;;;;
2021/03/13 04:28:44;;;;;;;1.8;1.1;;;;;;;5.54;58.48242;94527.24;;;;
2021/03/13 04:29:46;;;;;;;1.8;1.1;;;;;;;5.54;58.48242;94527.24;;;;
2021/03/13 04:30:47;;;;;;;1.8;1.1;;;;;;;5.54;58.48242;94527.24;;;;
2021/03/13 04:31:50;;;;;;;1.8;1.1;;;;;;;5.54;58.48242;94527.24;;;;
2021/03/13 04:32:51;;;;;;;1.8;1.1;;;;;;;5.54;58.48242;94527.24;;;;
2021/03/13 04:33:53;;;;;;;1.8;1.1;;;;;;;5.54;58.48242;94527.24;;;;
2021/03/13 04:34:55;;;;;;;1.8;1.1;;;;;;;5.54;58.48242;94527.24;;;;
2021/03/13 04:35:56;;;;;;;1.7;1.15;;;;;;;5.54;58.91797;94518.28;;;;
2021/03/13 04:36:57;;;;;;;1.7;1.15;;;;;;;5.54;58.91797;94518.28;;;;
2021/03/13 04:37:57;;;;;;;1.7;1.15;;;;;;;5.54;58.91797;94518.28;;;;
2021/03/13 04:38:59;;;;;;;1.7;1.15;;;;;;;5.54;58.91797;94518.28;;;;
2021/03/13 04:40:04;;;;;;;1.7;1.15;;;;;;;5.54;58.91797;94518.28;;;;
2021/03/13 04:41:07;;;;;;;1.7;1.15;;;;;;;5.54;58.91797;94518.28;;;;
2021/03/13 04:42:09;;;;;;;1.7;1.15;;;;;;;5.54;58.91797;94518.28;;;;
2021/03/13 04:43:11;;;;;;;1.7;1.15;;;;;;;5.54;58.91797;94518.28;;;;
2021/03/13 04:44:12;;;;;;;1.7;1.15;;;;;;;5.54;58.91797;94518.28;;;;
2021/03/13 04:45:13;;;;;;;1.7;1.15;;;;;;;5.54;58.91797;94518.28;;;;
2021/03/13 04:46:15;;;;;;;1.1;0.95;;;;;;;5.54;59.21582;94510.25;;;;
2021/03/13 04:47:16;;;;;;;1.1;0.95;;;;;;;5.54;59.21582;94510.25;;;;
2021/03/13 04:48:17;;;;;;;1.1;0.95;;;;;;;5.54;59.21582;94510.25;;;;
2021/03/13 04:49:18;;;;;;;1.1;0.95;;;;;;;5.54;59.21582;94510.25;;;;
2021/03/13 04:50:19;;;;;;;1.1;0.95;;;;;;;5.54;59.21582;94510.25;;;;
2021/03/13 04:51:21;;;;;;;1.1;0.95;;;;;;;5.54;59.21582;94510.25;;;;
2021/03/13 04:52:22;;;;;;;1.1;0.95;;;;;;;5.54;59.21582;94510.25;;;;
2021/03/13 04:53:23;;;;;;;1.1;0.95;;;;;;;5.54;59.21582;94510.25;;;;
2021/03/13 04:54:23;;;;;;;1.1;0.95;;;;;;;5.54;59.21582;94510.25;;;;
2021/03/13 04:55:24;;;;;;;1.1;0.95;;;;;;;5.54;59.21582;94510.25;;;;
2021/03/13 04:56:24;;;;;;;2.2;0.9;;;;;;;5.55;59.32227;94498.63;;;;
2021/03/13 04:57:25;;;;;;;2.2;0.9;;;;;;;5.55;59.32227;94498.63;;;;
2021/03/13 04:58:25;;;;;;;2.2;0.9;;;;;;;5.55;59.32227;94498.63;;;;
2021/03/13 04:59:26;;;;;;;2.2;0.9;;;;;;;5.55;59.32227;94498.63;;;;
2021/03/13 05:00:27;;;;;;;2.2;0.9;;;;;;;5.55;59.32227;94498.63;;;;
2021/03/13 05:01:27;;;;;;;2.2;0.9;;;;;;;5.55;59.32227;94498.63;;;;
2021/03/13 05:02:28;;;;;;;2.2;0.9;;;;;;;5.55;59.32227;94498.63;;;;
2021/03/13 05:03:28;;;;;;;2.2;0.9;;;;;;;5.55;59.32227;94498.63;;;;
2021/03/13 05:04:29;;;;;;;2.2;0.9;;;;;;;5.55;59.32227;94498.63;;;;
2021/03/13 05:05:33;;;;;;;2.2;0.9;;;;;;;5.55;59.32227;94498.63;;;;
2021/03/13 05:06:33;;;;;;;2.2;0.9;;;;;;;5.55;59.32227;94498.63;;;;
2021/03/13 05:07:34;;;;;;;1.4;0.9;;;;;;;5.66;59.2207;94492.41;;;;
2021/03/13 05:08:37;;;;;;;1.4;0.9;;;;;;;5.66;59.2207;94492.41;;;;
2021/03/13 05:09:37;;;;;;;1.4;0.9;;;;;;;5.66;59.2207;94492.41;;;;
2021/03/13 05:10:38;;;;;;;1.4;0.9;;;;;;;5.66;59.2207;94492.41;;;;
2021/03/13 05:11:39;;;;;;;1.4;0.9;;;;;;;5.66;59.2207;94492.41;;;;
2021/03/13 05:12:39;;;;;;;1.4;0.9;;;;;;;5.66;59.2207;94492.41;;;;
2021/03/13 05:13:40;;;;;;;1.4;0.9;;;;;;;5.66;59.2207;94492.41;;;;
2021/03/13 05:14:40;;;;;;;1.4;0.9;;;;;;;5.66;59.2207;94492.41;;;;
2021/03/13 05:15:41;;;;;;;1.4;0.9;;;;;;;5.66;59.2207;94492.41;;;;
2021/03/13 05:16:41;;;;;;;1.4;0.9;;;;;;;5.66;59.2207;94492.41;;;;
2021/03/13 05:17:42;;;;;;;1.4;1.05;;;;;;;5.83;58.88281;94485;;;;
2021/03/13 05:18:42;;;;;;;1.4;1.05;;;;;;;5.83;58.88281;94485;;;;
2021/03/13 05:19:43;;;;;;;1.4;1.05;;;;;;;5.83;58.88281;94485;;;;
2021/03/13 05:20:43;;;;;;;1.4;1.05;;;;;;;5.83;58.88281;94485;;;;
2021/03/13 05:21:44;;;;;;;1.4;1.05;;;;;;;5.83;58.88281;94485;;;;
2021/03/13 05:22:44;;;;;;;1.4;1.05;;;;;;;5.83;58.88281;94485;;;;
2021/03/13 05:23:46;;;;;;;1.4;1.05;;;;;;;5.83;58.88281;94485;;;;
2021/03/13 05:24:47;;;;;;;1.4;1.05;;;;;;;5.83;58.88281;94485;;;;
2021/03/13 05:25:47;;;;;;;1.4;1.05;;;;;;;5.83;58.88281;94485;;;;
2021/03/13 05:26:48;;;;;;;1.4;1.05;;;;;;;5.83;58.88281;94485;;;;
2021/03/13 05:27:48;;;;;;;1.4;1.05;;;;;;;5.83;58.88281;94485;;;;
2021/03/13 05:28:50;;;;;;;1.95;0.9;;;;;;;5.94;58.58887;94473.1;;;;
2021/03/13 05:29:51;;;;;;;1.95;0.9;;;;;;;5.94;58.58887;94473.1;;;;
2021/03/13 05:30:51;;;;;;;1.95;0.9;;;;;;;5.94;58.58887;94473.1;;;;
2021/03/13 05:31:52;;;;;;;1.95;0.9;;;;;;;5.94;58.58887;94473.1;;;;
2021/03/13 05:32:52;;;;;;;1.95;0.9;;;;;;;5.94;58.58887;94473.1;;;;
2021/03/13 05:33:53;;;;;;;1.95;0.9;;;;;;;5.94;58.58887;94473.1;;;;
2021/03/13 05:34:54;;;;;;;1.95;0.9;;;;;;;5.94;58.58887;94473.1;;;;
2021/03/13 05:35:54;;;;;;;1.95;0.9;;;;;;;5.94;58.58887;94473.1;;;;
2021/03/13 05:36:55;;;;;;;1.95;0.9;;;;;;;5.94;58.58887;94473.1;;;;
2021/03/13 05:37:55;;;;;;;1.95;0.9;;;;;;;5.94;58.58887;94473.1;;;;
2021/03/13 05:38:56;;;;;;;1.95;0.9;;;;;;;5.94;58.58887;94473.1;;;;
2021/03/13 05:39:56;;;;;;;0.9;0.9;;;;;;;5.87;58.46191;94467.44;;;;
2021/03/13 05:40:57;;;;;;;0.9;0.9;;;;;;;5.87;58.46191;94467.44;;;;
2021/03/13 05:41:58;;;;;;;0.9;0.9;;;;;;;5.87;58.46191;94467.44;;;;
2021/03/13 05:42:59;;;;;;;0.9;0.9;;;;;;;5.87;58.46191;94467.44;;;;
2021/03/13 05:43:59;;;;;;;0.9;0.9;;;;;;;5.87;58.46191;94467.44;;;;
2021/03/13 05:45:00;;;;;;;0.9;0.9;;;;;;;5.87;58.46191;94467.44;;;;
2021/03/13 05:46:02;;;;;;;0.9;0.9;;;;;;;5.87;58.46191;94467.44;;;;
2021/03/13 05:47:05;;;;;;;0.9;0.9;;;;;;;5.87;58.46191;94467.44;;;;
2021/03/13 05:48:07;;;;;;;0.9;0.9;;;;;;;5.87;58.46191;94467.44;;;;
2021/03/13 05:49:09;;;;;;;0.9;0.9;;;;;;;5.87;58.46191;94467.44;;;;
2021/03/13 05:50:10;;;;;;;2.599999;1.1;;;;;;;5.79;58.43164;94453.39;;;;
2021/03/13 05:51:14;;;;;;;2.599999;1.1;;;;;;;5.79;58.43164;94453.39;;;;
2021/03/13 05:52:15;;;;;;;2.599999;1.1;;;;;;;5.79;58.43164;94453.39;;;;
2021/03/13 05:53:19;;;;;;;2.599999;1.1;;;;;;;5.79;58.43164;94453.39;;;;
2021/03/13 05:54:19;;;;;;;2.599999;1.1;;;;;;;5.79;58.43164;94453.39;;;;
2021/03/13 05:55:21;;;;;;;2.599999;1.1;;;;;;;5.79;58.43164;94453.39;;;;
2021/03/13 05:56:21;;;;;;;2.599999;1.1;;;;;;;5.79;58.43164;94453.39;;;;
2021/03/13 05:57:22;;;;;;;2.599999;1.1;;;;;;;5.79;58.43164;94453.39;;;;
2021/03/13 05:58:23;;;;;;;2.599999;1.1;;;;;;;5.79;58.43164;94453.39;;;;
2021/03/13 05:59:24;;;;;;;2.599999;1.1;;;;;;;5.79;58.43164;94453.39;;;;
2021/03/13 06:00:25;;;;;;;1.15;1;;;;;;;5.82;58.33887;94440.08;;;;
2021/03/13 06:01:25;;;;;;;1.15;1;;;;;;;5.82;58.33887;94440.08;;;;
2021/03/13 06:02:28;;;;;;;1.15;1;;;;;;;5.82;58.33887;94440.08;;;;
2021/03/13 06:03:29;;;;;;;1.15;1;;;;;;;5.82;58.33887;94440.08;;;;
2021/03/13 06:04:32;;;;;;;1.15;1;;;;;;;5.82;58.33887;94440.08;;;;
2021/03/13 06:05:32;;;;;;;1.15;1;;;;;;;5.82;58.33887;94440.08;;;;
2021/03/13 06:06:33;;;;;;;1.15;1;;;;;;;5.82;58.33887;94440.08;;;;
2021/03/13 06:07:37;;;;;;;1.15;1;;;;;;;5.82;58.33887;94440.08;;;;
2021/03/13 06:08:38;;;;;;;1.15;1;;;;;;;5.82;58.33887;94440.08;;;;